Time;durP1;ratioP1;P1;durP2;ratioP2;P2;SDS_P1;SDS_P2;PMS_P1;PMS_P2;Temp;Humidity;BMP_temperature;BMP_pressure;BME280_temperature;BME280_humidity;BME280_pressure;Samples;Min_cycle;Max_cycle;Signal;HPM_P1;HPM_P2
2022/09/16 00:00:57;;;;;;;7.05;2.08;;;;;;;11.69;88.42;101019.41;4991052;28;20045;-75
2022/09/16 00:03:22;;;;;;;7.43;1.90;;;;;;;11.67;88.33;101015.06;4994634;28;20034;-75
2022/09/16 00:05:50;;;;;;;5.97;2.53;;;;;;;11.68;89.32;101014.94;4993603;28;20050;-75
2022/09/16 00:08:17;;;;;;;4.78;2.50;;;;;;;11.69;89.11;101013.97;5011584;28;20034;-75
2022/09/16 00:10:42;;;;;;;6.15;1.90;;;;;;;11.72;88.40;101010.16;4998363;28;20035;-76
2022/09/16 00:13:12;;;;;;;3.53;1.38;;;;;;;11.72;88.09;101007.44;4991164;28;20038;-75
2022/09/16 00:15:42;;;;;;;4.07;2.13;;;;;;;11.71;88.08;101006.56;5010898;28;20030;-75
2022/09/16 00:18:07;;;;;;;8.10;2.40;;;;;;;11.75;88.22;101007.22;5023795;28;20173;-74
2022/09/16 00:20:32;;;;;;;10.38;2.30;;;;;;;11.74;87.89;101008.16;5006705;28;20073;-74
2022/09/16 00:22:58;;;;;;;8.05;2.53;;;;;;;11.74;88.50;101008.16;5004531;28;20024;-74
2022/09/16 00:25:23;;;;;;;7.28;2.22;;;;;;;11.73;88.43;101001.84;5001875;28;20050;-75
2022/09/16 00:27:48;;;;;;;3.80;1.70;;;;;;;11.74;88.25;101002.72;4989979;28;20252;-74
2022/09/16 00:30:14;;;;;;;8.32;2.28;;;;;;;11.69;88.59;100991.28;5006684;28;20041;-74
2022/09/16 00:32:39;;;;;;;4.88;1.85;;;;;;;11.69;88.46;100997.59;4991446;28;20573;-74
2022/09/16 00:35:05;;;;;;;6.97;1.85;;;;;;;11.66;88.52;100991.53;5006307;28;20062;-75
2022/09/16 00:37:32;;;;;;;4.47;1.73;;;;;;;11.70;88.56;101003.94;4991127;28;20042;-75
2022/09/16 00:39:57;;;;;;;6.03;1.83;;;;;;;11.67;88.98;100994.13;5006168;28;20061;-75
2022/09/16 00:42:22;;;;;;;4.57;1.83;;;;;;;11.65;89.60;101003.41;4991124;28;20560;-74
2022/09/16 00:44:54;;;;;;;5.65;2.13;;;;;;;11.61;89.46;100993.72;4990776;28;20034;-75
2022/09/16 00:47:34;;;;;;;5.07;2.00;;;;;;;11.58;89.02;100999.41;5006238;28;20049;-74
2022/09/16 00:50:15;;;;;;;3.63;1.60;;;;;;;11.58;89.10;101002.13;4991148;28;20505;-74
2022/09/16 00:52:41;;;;;;;2.55;1.73;;;;;;;11.52;89.01;101000.75;5001721;28;20128;-74
2022/09/16 00:55:12;;;;;;;3.10;1.67;;;;;;;11.47;89.13;100997.44;4995945;28;20097;-75
2022/09/16 00:57:39;;;;;;;2.30;1.98;;;;;;;11.43;89.18;100994.13;4990700;28;20077;-75
2022/09/16 01:00:08;;;;;;;3.90;2.15;;;;;;;11.41;89.10;100997.91;5005420;28;20042;-75
2022/09/16 01:02:33;;;;;;;6.68;2.13;;;;;;;11.35;88.65;100988.34;5005885;28;20465;-75
2022/09/16 01:05:05;;;;;;;6.70;2.40;;;;;;;11.31;88.54;100997.72;5005213;28;20046;-75
2022/09/16 01:07:38;;;;;;;5.70;2.03;;;;;;;11.26;89.05;100991.75;4988809;28;20050;-75
2022/09/16 01:10:04;;;;;;;4.97;2.08;;;;;;;11.21;88.68;100992.09;4989263;28;20066;-75
2022/09/16 01:12:31;;;;;;;9.45;2.78;;;;;;;11.16;89.10;100983.38;4990507;28;20026;-75
2022/09/16 01:14:57;;;;;;;7.28;2.42;;;;;;;11.11;89.09;100968.38;4990217;28;20525;-75
2022/09/16 01:17:49;;;;;;;6.30;2.22;;;;;;;10.97;88.79;100983.84;4989175;28;20041;-75
2022/09/16 01:20:48;;;;;;;4.32;2.30;;;;;;;10.94;89.07;100983.19;5005688;28;20066;-74
2022/09/16 01:23:23;;;;;;;5.47;2.38;;;;;;;10.91;88.66;100986.13;5015563;28;20037;-74
2022/09/16 01:26:12;;;;;;;8.05;2.25;;;;;;;10.88;88.51;100987.22;5012523;28;20026;-75
2022/09/16 01:29:03;;;;;;;4.25;2.42;;;;;;;10.86;88.31;100978.28;4987925;28;20189;-75
2022/09/16 01:31:55;;;;;;;6.10;2.45;;;;;;;10.84;88.81;100991.13;4988729;28;20054;-75
2022/09/16 01:34:44;;;;;;;5.90;2.33;;;;;;;10.80;89.09;100991.47;5005160;28;20125;-75
2022/09/16 01:37:31;;;;;;;6.85;2.40;;;;;;;10.72;89.06;100987.44;4990336;28;20039;-75
2022/09/16 01:40:27;;;;;;;4.75;2.55;;;;;;;10.66;89.17;100974.25;4990131;28;20454;-75
2022/09/16 01:43:14;;;;;;;7.38;2.30;;;;;;;10.63;89.14;100982.66;5005056;28;20989;-75
2022/09/16 01:45:54;;;;;;;9.15;3.08;;;;;;;10.58;89.71;100967.63;5024496;28;20099;-75
2022/09/16 01:48:33;;;;;;;5.95;2.60;;;;;;;10.55;89.49;100978.72;5004537;28;20125;-74
2022/09/16 01:51:04;;;;;;;4.78;2.42;;;;;;;10.52;89.70;100979.81;4990151;28;21616;-74
2022/09/16 01:53:41;;;;;;;8.32;2.95;;;;;;;10.49;89.66;100982.72;5006024;28;20042;-74
2022/09/16 01:56:38;;;;;;;7.22;2.80;;;;;;;10.45;90.13;100984.81;5004088;28;20449;-74
2022/09/16 01:59:08;;;;;;;7.68;2.72;;;;;;;10.43;90.29;100981.31;4989555;28;20504;-74
2022/09/16 02:01:59;;;;;;;8.13;3.10;;;;;;;10.39;90.19;100987.94;4989734;28;20120;-75
2022/09/16 02:04:31;;;;;;;5.13;2.53;;;;;;;10.39;90.58;100987.94;5004723;28;20379;-75
2022/09/16 02:07:00;;;;;;;5.07;2.93;;;;;;;10.38;90.32;100991.66;4989900;28;20038;-75
2022/09/16 02:09:32;;;;;;;13.68;3.22;;;;;;;10.42;90.91;100992.31;4989476;28;20277;-74
2022/09/16 02:12:04;;;;;;;9.80;2.83;;;;;;;10.47;90.84;100992.84;4995416;28;20129;-75
2022/09/16 02:14:34;;;;;;;10.57;3.33;;;;;;;10.47;90.74;100992.84;4993154;28;20524;-75
2022/09/16 02:17:04;;;;;;;8.18;3.35;;;;;;;10.34;90.80;100968.34;4989645;28;20147;-74
2022/09/16 02:19:44;;;;;;;8.75;3.30;;;;;;;10.55;90.71;100995.06;4989615;28;20037;-74
2022/09/16 02:22:35;;;;;;;6.53;3.20;;;;;;;10.59;89.97;101000.19;4996305;28;20034;-74
2022/09/16 02:25:03;;;;;;;8.57;3.15;;;;;;;10.61;90.18;100992.75;5003560;28;20049;-74
2022/09/16 02:27:31;;;;;;;6.97;2.55;;;;;;;10.62;90.01;100999.06;4988323;28;20041;-74
2022/09/16 02:30:04;;;;;;;5.90;2.67;;;;;;;10.65;90.80;100998.88;4989252;28;20030;-74
2022/09/16 02:32:35;;;;;;;9.25;2.75;;;;;;;10.66;90.89;100997.88;5004477;28;20068;-74
2022/09/16 02:35:02;;;;;;;5.63;2.97;;;;;;;10.68;90.44;100998.66;4989442;28;20046;-74
2022/09/16 02:37:31;;;;;;;5.72;2.33;;;;;;;10.71;89.76;100992.97;4989406;28;20018;-74
2022/09/16 02:40:03;;;;;;;5.38;2.58;;;;;;;10.72;89.59;100983.84;4989394;28;20045;-75
2022/09/16 02:42:29;;;;;;;6.72;2.22;;;;;;;10.74;89.79;100992.78;4989520;28;20141;-74
2022/09/16 02:44:56;;;;;;;7.20;2.53;;;;;;;10.75;89.32;100988.19;4990303;28;20117;-74
2022/09/16 02:47:39;;;;;;;7.15;2.40;;;;;;;10.76;89.01;100998.09;4989415;28;20034;-74
2022/09/16 02:50:13;;;;;;;4.45;2.53;;;;;;;10.72;89.63;100987.44;4989407;28;20540;-74
2022/09/16 02:52:47;;;;;;;3.63;2.00;;;;;;;10.74;89.76;100995.50;4999901;28;20088;-74
2022/09/16 02:55:23;;;;;;;4.45;2.13;;;;;;;10.74;89.33;100990.06;5016909;28;20030;-74
2022/09/16 02:57:49;;;;;;;4.22;1.65;;;;;;;10.78;89.54;100988.88;4989136;28;20493;-74
2022/09/16 03:00:15;;;;;;;5.95;2.25;;;;;;;10.79;89.35;100982.44;4989168;28;20042;-75
2022/09/16 03:02:40;;;;;;;8.18;2.15;;;;;;;10.80;89.89;100981.44;4990824;28;20040;-75
2022/09/16 03:05:06;;;;;;;4.78;2.33;;;;;;;10.86;89.71;100993.75;4990787;28;20521;-74
2022/09/16 03:07:32;;;;;;;6.40;1.95;;;;;;;10.86;89.19;100989.16;4996658;28;20446;-74
2022/09/16 03:09:58;;;;;;;9.73;2.13;;;;;;;10.89;88.94;100991.69;4998041;28;20117;-74
2022/09/16 03:12:55;;;;;;;5.00;1.60;;;;;;;10.95;88.83;100980.34;4988961;28;20504;-74
2022/09/16 03:15:59;;;;;;;4.47;1.70;;;;;;;10.97;88.84;100982.97;4987735;28;20378;-74
2022/09/16 03:18:36;;;;;;;3.92;1.83;;;;;;;10.99;89.37;100986.44;4966227;28;20045;-74
2022/09/16 03:21:21;;;;;;;11.15;1.73;;;;;;;11.01;88.91;100981.78;4967663;28;20078;-73
2022/09/16 03:24:13;;;;;;;5.60;1.55;;;;;;;11.06;89.33;100973.28;4980858;28;20096;-75
2022/09/16 03:27:04;;;;;;;8.23;1.67;;;;;;;11.08;89.03;100985.78;5003092;28;20073;-74
2022/09/16 03:29:54;;;;;;;3.25;1.50;;;;;;;11.07;89.31;100986.75;4990150;28;20068;-74
2022/09/16 03:32:51;;;;;;;3.72;1.42;;;;;;;11.05;89.27;100983.31;5007613;28;20039;-74
2022/09/16 03:35:20;;;;;;;4.85;1.60;;;;;;;11.04;90.17;100976.09;4988602;28;20494;-75
2022/09/16 03:37:46;;;;;;;5.13;1.70;;;;;;;11.02;89.38;100983.50;4992780;28;20061;-75
2022/09/16 03:40:16;;;;;;;5.80;1.65;;;;;;;11.03;89.20;100979.78;4992380;28;20478;-75
2022/09/16 03:42:43;;;;;;;4.00;1.42;;;;;;;11.03;89.36;100981.66;4990968;28;20045;-75
2022/09/16 03:45:20;;;;;;;6.28;2.08;;;;;;;11.04;89.54;100980.66;4992122;28;20038;-74
2022/09/16 03:47:46;;;;;;;4.82;1.75;;;;;;;11.03;89.31;100973.50;5007707;28;20046;-74
2022/09/16 03:50:13;;;;;;;3.30;1.33;;;;;;;11.01;89.45;100981.78;4992643;28;20041;-74
2022/09/16 03:52:38;;;;;;;4.32;1.42;;;;;;;10.96;89.60;100978.50;5002651;28;20034;-75
2022/09/16 03:55:05;;;;;;;5.40;1.77;;;;;;;10.91;89.30;100970.69;5005834;28;20085;-75
2022/09/16 03:57:31;;;;;;;6.38;2.45;;;;;;;10.88;89.43;100976.34;4992177;28;20540;-75
2022/09/16 03:59:56;;;;;;;4.47;1.40;;;;;;;10.87;88.85;100981.91;4991881;28;20031;-75
2022/09/16 04:02:21;;;;;;;4.88;1.50;;;;;;;10.85;89.01;100979.25;4990664;28;20110;-74
2022/09/16 04:04:47;;;;;;;9.40;1.67;;;;;;;10.83;89.38;100980.38;4991264;28;20089;-75
2022/09/16 04:07:12;;;;;;;7.05;1.80;;;;;;;10.81;89.48;100980.47;4992037;28;20561;-75
2022/09/16 04:09:37;;;;;;;3.58;1.58;;;;;;;10.80;89.80;100976.00;4991688;28;20066;-75
2022/09/16 04:12:06;;;;;;;2.20;1.42;;;;;;;10.80;89.64;100977.84;5006917;28;20431;-74
2022/09/16 04:14:32;;;;;;;5.63;2.10;;;;;;;10.76;90.29;100979.06;4994884;28;20034;-75
2022/09/16 04:16:57;;;;;;;6.35;1.55;;;;;;;10.76;89.82;100979.06;5006964;28;20085;-74
2022/09/16 04:19:23;;;;;;;6.78;2.45;;;;;;;10.76;89.49;100981.78;5002305;28;20025;-74
2022/09/16 04:21:49;;;;;;;5.30;2.03;;;;;;;10.75;90.36;100980.91;5011543;28;20046;-75
2022/09/16 04:24:14;;;;;;;6.97;1.67;;;;;;;10.76;89.92;100979.91;5013408;28;20041;-75
2022/09/16 04:26:40;;;;;;;6.43;1.88;;;;;;;10.76;90.21;100982.63;5004653;28;20446;-74
2022/09/16 04:29:06;;;;;;;2.58;1.50;;;;;;;10.78;90.01;100991.59;5006416;28;20575;-74
2022/09/16 04:31:31;;;;;;;5.97;1.88;;;;;;;10.78;90.87;100999.75;4991499;28;20042;-74
2022/09/16 04:33:57;;;;;;;3.38;1.55;;;;;;;10.78;89.84;100997.03;4991175;28;20038;-74
2022/09/16 04:36:22;;;;;;;6.82;1.70;;;;;;;10.81;90.66;101013.13;4990342;28;20102;-74
2022/09/16 04:38:48;;;;;;;8.65;2.13;;;;;;;10.81;90.58;100996.78;4990001;28;20426;-74
2022/09/16 04:41:17;;;;;;;5.78;1.70;;;;;;;10.80;90.81;100994.19;5010610;28;20393;-74
2022/09/16 04:43:43;;;;;;;4.95;1.92;;;;;;;10.81;90.63;100987.75;5005081;28;20026;-74
2022/09/16 04:46:09;;;;;;;5.93;1.70;;;;;;;10.81;91.00;100985.03;4991377;28;20043;-75
2022/09/16 04:48:36;;;;;;;6.28;1.73;;;;;;;10.82;90.92;100971.34;5005068;28;20041;-74
2022/09/16 04:51:07;;;;;;;5.57;1.73;;;;;;;10.82;91.00;100974.06;5006188;28;20030;-75
2022/09/16 04:53:33;;;;;;;5.97;1.95;;;;;;;10.85;91.17;100964.78;5024409;28;20485;-75
2022/09/16 04:56:16;;;;;;;4.95;1.38;;;;;;;10.84;90.85;100961.19;4997563;28;20114;-75
2022/09/16 04:58:47;;;;;;;4.78;1.40;;;;;;;10.83;90.93;100967.63;4995266;28;20034;-75
2022/09/16 05:01:22;;;;;;;3.58;1.27;;;;;;;10.83;90.82;100978.53;5014868;28;20061;-75
2022/09/16 05:03:50;;;;;;;4.10;1.35;;;;;;;10.82;91.09;100974.06;5001870;28;20164;-75
2022/09/16 05:06:24;;;;;;;6.10;1.50;;;;;;;10.81;90.80;100975.00;5006624;28;20103;-76
2022/09/16 05:08:50;;;;;;;5.25;1.50;;;;;;;10.81;90.97;100980.47;5001601;28;20037;-75
2022/09/16 05:11:19;;;;;;;2.85;1.50;;;;;;;10.73;91.01;100989.19;5001905;28;20120;-76
2022/09/16 05:13:44;;;;;;;5.10;1.35;;;;;;;10.72;90.86;100992.00;4999168;28;20028;-75
2022/09/16 05:16:12;;;;;;;3.75;1.20;;;;;;;10.75;90.92;100993.66;5000480;28;20026;-76
2022/09/16 05:18:39;;;;;;;2.67;1.40;;;;;;;10.72;91.44;100995.63;4999214;28;20462;-76
2022/09/16 05:21:07;;;;;;;4.35;1.60;;;;;;;10.76;91.79;100998.09;4999894;28;20034;-76
2022/09/16 05:23:33;;;;;;;9.65;1.30;;;;;;;10.77;91.56;100991.66;5002488;28;20057;-75
2022/09/16 05:26:07;;;;;;;3.13;1.42;;;;;;;10.78;91.59;100998.88;4989594;28;20394;-75
2022/09/16 05:28:34;;;;;;;5.78;1.38;;;;;;;10.73;91.38;101000.06;4990002;28;20038;-74
2022/09/16 05:31:18;;;;;;;4.32;1.42;;;;;;;10.72;91.60;101001.06;5021122;28;20026;-75
2022/09/16 05:33:57;;;;;;;4.47;1.10;;;;;;;10.75;90.77;100999.94;5007101;28;20472;-75
2022/09/16 05:36:23;;;;;;;4.15;1.25;;;;;;;10.78;91.78;100994.31;5009716;28;20034;-74
2022/09/16 05:38:49;;;;;;;4.20;1.50;;;;;;;10.81;91.40;100993.19;5006305;28;20026;-75
2022/09/16 05:41:14;;;;;;;3.05;1.30;;;;;;;10.81;91.95;100991.34;5007353;28;20406;-75
2022/09/16 05:43:40;;;;;;;3.47;1.35;;;;;;;10.84;91.50;101003.88;5004487;28;20030;-76
2022/09/16 05:46:06;;;;;;;6.95;1.50;;;;;;;10.82;91.67;100992.22;5009280;28;20072;-76
2022/09/16 05:48:33;;;;;;;5.28;1.50;;;;;;;10.81;92.01;100991.34;5005386;28;20440;-76
2022/09/16 05:51:01;;;;;;;1.50;1.13;;;;;;;10.84;92.53;100998.44;5009352;28;20021;-75
2022/09/16 05:53:28;;;;;;;3.15;1.27;;;;;;;10.85;92.39;101003.75;5007626;28;20033;-75
2022/09/16 05:55:55;;;;;;;3.85;1.20;;;;;;;10.86;91.80;101000.06;5003757;28;20374;-76
2022/09/16 05:58:21;;;;;;;6.78;1.48;;;;;;;10.89;92.36;101002.56;5006410;28;20650;-75
2022/09/16 06:00:46;;;;;;;7.93;2.83;;;;;;;10.89;92.26;101004.41;5008607;28;20045;-76
2022/09/16 06:03:12;;;;;;;3.45;1.40;;;;;;;10.91;91.98;100994.28;5006609;28;20076;-75
2022/09/16 06:05:38;;;;;;;3.70;1.70;;;;;;;10.93;92.43;100998.66;5007721;28;20049;-76
2022/09/16 06:08:03;;;;;;;2.67;1.42;;;;;;;10.97;92.51;101000.16;5007718;28;20131;-76
2022/09/16 06:10:29;;;;;;;6.80;1.80;;;;;;;10.97;92.30;100999.31;5003729;28;20026;-76
2022/09/16 06:12:54;;;;;;;5.68;1.83;;;;;;;10.96;92.39;100997.56;5016180;28;20065;-75
2022/09/16 06:15:20;;;;;;;4.90;1.65;;;;;;;11.01;93.32;101010.84;4999356;28;20050;-75
2022/09/16 06:17:45;;;;;;;2.20;1.00;;;;;;;11.06;92.93;101008.66;4990188;28;20526;-75
2022/09/16 06:20:13;;;;;;;5.38;1.50;;;;;;;11.06;92.56;101008.66;4989626;28;20424;-76
2022/09/16 06:22:39;;;;;;;5.68;1.38;;;;;;;11.10;92.46;101015.63;5015362;28;20070;-75
2022/09/16 06:25:05;;;;;;;1.67;1.10;;;;;;;11.09;92.88;101016.59;5003851;28;20414;-76
2022/09/16 06:27:31;;;;;;;1.77;1.35;;;;;;;11.10;92.42;101019.22;4988327;28;20390;-76
2022/09/16 06:29:56;;;;;;;6.97;1.30;;;;;;;11.12;92.02;101010.94;4989562;28;20049;-76
2022/09/16 06:32:21;;;;;;;2.88;1.27;;;;;;;11.19;92.26;101015.84;5021680;28;20092;-75
2022/09/16 06:34:47;;;;;;;4.18;1.23;;;;;;;11.28;93.03;101014.28;5007012;28;20057;-76
2022/09/16 06:37:13;;;;;;;5.57;1.25;;;;;;;11.35;92.38;101015.59;5006131;28;20037;-75
2022/09/16 06:39:39;;;;;;;1.48;0.80;;;;;;;11.41;92.03;101022.44;5006320;28;20040;-75
2022/09/16 06:42:06;;;;;;;2.85;1.92;;;;;;;11.45;92.26;101029.41;5023180;28;20109;-76
2022/09/16 06:44:38;;;;;;;5.88;1.17;;;;;;;11.47;92.10;101024.69;4987529;28;20220;-76
2022/09/16 06:47:04;;;;;;;6.45;1.27;;;;;;;11.45;91.70;101029.41;5006720;28;20113;-75
2022/09/16 06:49:29;;;;;;;6.00;1.35;;;;;;;11.48;90.83;101037.38;5003838;28;20505;-76
2022/09/16 06:51:55;;;;;;;2.28;0.82;;;;;;;11.48;91.38;101034.63;5007099;28;20437;-76
2022/09/16 06:54:20;;;;;;;5.07;1.20;;;;;;;11.45;91.04;101027.53;5007378;28;20497;-75
2022/09/16 06:56:46;;;;;;;5.50;0.95;;;;;;;11.41;90.93;101025.16;5004564;28;20343;-75
2022/09/16 06:59:13;;;;;;;4.95;1.25;;;;;;;11.34;91.48;101019.31;4995867;28;20507;-75
2022/09/16 07:01:39;;;;;;;2.92;1.00;;;;;;;11.29;91.27;101024.22;5007028;28;20072;-76
2022/09/16 07:04:14;;;;;;;3.40;1.35;;;;;;;11.27;91.53;101025.28;5006506;28;20106;-76
2022/09/16 07:06:40;;;;;;;2.25;1.08;;;;;;;11.26;91.49;101029.00;5012596;28;20497;-76
2022/09/16 07:09:06;;;;;;;4.90;1.00;;;;;;;11.25;91.88;101022.69;5008303;28;20026;-75
2022/09/16 07:11:31;;;;;;;4.65;1.33;;;;;;;11.26;91.77;101021.69;5005347;28;20065;-76
2022/09/16 07:13:58;;;;;;;4.85;1.45;;;;;;;11.27;92.26;101022.56;4994431;28;20415;-75
2022/09/16 07:16:25;;;;;;;3.83;1.20;;;;;;;11.28;91.37;101029.75;5010007;28;20058;-75
2022/09/16 07:18:55;;;;;;;2.92;1.23;;;;;;;11.29;91.76;101026.06;5010477;28;20030;-74
2022/09/16 07:21:24;;;;;;;8.45;1.90;;;;;;;11.33;92.17;101025.75;5013026;28;20132;-75
2022/09/16 07:23:50;;;;;;;6.05;1.25;;;;;;;11.38;92.26;101030.84;5008091;28;20049;-75
2022/09/16 07:26:21;;;;;;;2.33;1.48;;;;;;;11.45;92.00;101030.28;4992283;28;20026;-76
2022/09/16 07:28:48;;;;;;;6.40;1.55;;;;;;;11.50;91.88;101029.94;4993867;28;20397;-75
2022/09/16 07:31:17;;;;;;;8.10;1.40;;;;;;;11.60;91.60;101032.84;5020423;28;20030;-75
2022/09/16 07:33:47;;;;;;;3.58;1.63;;;;;;;11.72;91.15;101045.59;5009696;28;20030;-75
2022/09/16 07:36:17;;;;;;;3.22;1.10;;;;;;;11.96;92.44;101051.09;5007587;28;20488;-75
2022/09/16 07:38:42;;;;;;;5.68;1.48;;;;;;;12.28;92.09;101047.78;5011453;28;20045;-75
2022/09/16 07:41:17;;;;;;;2.67;1.50;;;;;;;12.43;90.68;101046.59;4998608;28;20454;-75
2022/09/16 07:43:43;;;;;;;2.65;1.30;;;;;;;12.47;89.73;101051.72;4992440;28;20045;-75
2022/09/16 07:46:10;;;;;;;5.20;1.40;;;;;;;12.50;89.73;101046.03;5017316;28;20548;-76
2022/09/16 07:48:36;;;;;;;13.57;1.70;;;;;;;12.50;88.88;101032.38;5010520;28;20388;-76
2022/09/16 07:51:11;;;;;;;4.13;1.25;;;;;;;12.52;88.81;101043.16;5012013;28;20049;-77
2022/09/16 07:53:37;;;;;;;3.97;1.42;;;;;;;12.46;88.57;101044.50;5010420;28;20034;-77
2022/09/16 07:56:15;;;;;;;7.20;1.45;;;;;;;12.35;88.90;101041.72;5007950;28;20478;-76
2022/09/16 07:58:41;;;;;;;3.22;1.80;;;;;;;12.25;88.37;101047.03;5007891;28;20030;-78
2022/09/16 08:01:08;;;;;;;3.90;1.30;;;;;;;12.19;89.03;101047.50;4993718;28;20499;-76
2022/09/16 08:03:37;;;;;;;3.15;1.50;;;;;;;12.11;89.15;101047.19;5003107;28;20601;-75
2022/09/16 08:06:11;;;;;;;5.90;1.40;;;;;;;12.08;90.25;101052.91;4991127;28;20050;-76
2022/09/16 08:08:37;;;;;;;3.10;1.23;;;;;;;12.12;90.21;101048.06;5007161;28;20042;-76
2022/09/16 08:11:03;;;;;;;3.30;1.63;;;;;;;12.16;90.82;101055.91;4992008;28;20064;-77
2022/09/16 08:13:30;;;;;;;5.43;1.80;;;;;;;12.14;90.66;101060.63;5023035;28;20029;-77
2022/09/16 08:16:01;;;;;;;7.15;2.13;;;;;;;12.14;90.38;101059.75;5010688;28;20030;-76
2022/09/16 08:18:27;;;;;;;6.25;1.98;;;;;;;12.11;90.60;101054.50;5008913;28;20081;-76
2022/09/16 08:20:52;;;;;;;5.15;1.85;;;;;;;12.14;90.62;101063.34;5008238;28;20088;-76
2022/09/16 08:23:18;;;;;;;6.10;1.88;;;;;;;12.21;91.23;101055.53;5009554;28;20038;-76
2022/09/16 08:25:44;;;;;;;3.30;1.45;;;;;;;12.37;91.88;101056.13;5009079;28;20038;-77
2022/09/16 08:28:14;;;;;;;8.27;1.90;;;;;;;12.51;90.61;101066.84;5006458;28;20472;-75
2022/09/16 08:30:40;;;;;;;5.88;2.00;;;;;;;12.60;90.53;101069.88;4999961;28;20030;-76
2022/09/16 08:33:06;;;;;;;8.07;2.10;;;;;;;12.59;88.56;101066.28;5000922;28;20496;-76
2022/09/16 08:35:31;;;;;;;3.10;1.83;;;;;;;12.60;88.67;101058.97;5002770;28;20037;-76
2022/09/16 08:37:58;;;;;;;6.22;1.55;;;;;;;12.65;89.20;101068.53;5000406;28;20546;-76
2022/09/16 08:40:25;;;;;;;4.18;2.10;;;;;;;12.71;89.66;101058.97;5003260;28;20028;-76
2022/09/16 08:43:10;;;;;;;5.40;1.83;;;;;;;12.80;89.42;101066.44;5007897;28;20037;-76
2022/09/16 08:46:07;;;;;;;4.85;1.90;;;;;;;12.93;88.99;101060.91;5007330;28;20444;-76
2022/09/16 08:48:54;;;;;;;6.43;1.77;;;;;;;13.12;87.95;101060.31;5006887;28;20038;-77
2022/09/16 08:51:21;;;;;;;8.10;1.80;;;;;;;13.19;87.95;101058.81;5007432;28;20034;-77
2022/09/16 08:54:00;;;;;;;3.10;1.50;;;;;;;13.40;88.87;101072.66;5023314;28;20030;-77
2022/09/16 08:56:28;;;;;;;7.38;1.35;;;;;;;13.56;87.71;101073.13;5006836;28;20052;-76
2022/09/16 08:58:56;;;;;;;2.65;1.13;;;;;;;13.64;84.38;101076.13;5001948;28;20033;-76
2022/09/16 09:01:35;;;;;;;5.40;1.20;;;;;;;13.67;83.91;101072.28;5006834;28;20041;-76
2022/09/16 09:04:01;;;;;;;2.08;0.90;;;;;;;13.65;83.09;101066.94;5017058;28;20030;-76
2022/09/16 09:06:45;;;;;;;4.13;1.05;;;;;;;13.76;82.00;101074.28;4990029;28;20060;-77
2022/09/16 09:09:22;;;;;;;4.38;1.08;;;;;;;13.95;80.72;101079.09;5005769;28;20042;-77
2022/09/16 09:11:53;;;;;;;5.65;1.35;;;;;;;14.23;82.17;101077.66;5003674;28;20034;-77
2022/09/16 09:14:55;;;;;;;4.78;1.10;;;;;;;14.48;82.45;101069.13;4990502;28;20069;-77
2022/09/16 09:17:50;;;;;;;9.90;2.40;;;;;;;14.64;80.78;101062.31;4980866;28;20054;-76
2022/09/16 09:20:55;;;;;;;1.63;0.90;;;;;;;14.69;77.97;101071.03;5006074;28;20120;-76
2022/09/16 09:23:39;;;;;;;3.10;0.80;;;;;;;14.63;78.03;101075.13;4988408;28;20038;-76
2022/09/16 09:26:19;;;;;;;5.50;1.00;;;;;;;14.67;78.44;101076.63;5005280;28;20039;-76
2022/09/16 09:28:48;;;;;;;7.70;1.10;;;;;;;14.64;75.09;101082.38;4990225;28;20034;-77
2022/09/16 09:31:50;;;;;;;3.60;0.90;;;;;;;14.60;75.53;101082.78;5005804;28;20038;-76
2022/09/16 09:34:21;;;;;;;3.47;0.90;;;;;;;14.56;72.36;101075.81;5005734;28;20560;-76
2022/09/16 09:36:58;;;;;;;7.72;1.10;;;;;;;14.71;76.20;101077.22;4990954;28;20466;-76
2022/09/16 09:39:36;;;;;;;4.88;0.77;;;;;;;14.99;76.49;101068.34;5005331;28;20770;-76
2022/09/16 09:42:20;;;;;;;2.60;0.82;;;;;;;15.28;76.56;101065.78;5010007;28;20482;-76
2022/09/16 09:44:51;;;;;;;17.38;1.80;;;;;;;15.50;72.36;101080.31;4994260;28;20050;-76
2022/09/16 09:47:38;;;;;;;2.60;0.75;;;;;;;15.29;67.87;101110.50;4990369;28;20594;-75
2022/09/16 09:50:18;;;;;;;1.45;0.70;;;;;;;14.54;67.72;101108.78;4990240;28;20564;-76
2022/09/16 09:53:07;;;;;;;4.30;0.52;;;;;;;13.83;67.61;101096.50;5016774;28;20037;-76
2022/09/16 09:55:34;;;;;;;2.08;0.60;;;;;;;13.46;70.15;101103.09;4999619;28;20050;-75
2022/09/16 09:58:38;;;;;;;1.75;0.50;;;;;;;13.30;73.59;101099.88;4988262;28;20026;-76
2022/09/16 10:01:04;;;;;;;4.80;0.52;;;;;;;12.85;73.94;101090.66;4971606;28;20072;-75
2022/09/16 10:03:30;;;;;;;4.03;1.02;;;;;;;12.61;76.75;101104.38;4985201;28;20133;-75
2022/09/16 10:05:55;;;;;;;1.67;0.57;;;;;;;12.58;78.82;101119.09;4967479;28;20555;-77
2022/09/16 10:08:29;;;;;;;10.02;1.25;;;;;;;12.38;79.48;101125.22;4990124;28;20030;-77
2022/09/16 10:10:56;;;;;;;3.97;0.80;;;;;;;12.19;79.89;101131.19;4988727;28;20486;-76
2022/09/16 10:13:24;;;;;;;5.82;0.88;;;;;;;11.97;79.29;101121.00;5017248;28;20485;-76
2022/09/16 10:15:53;;;;;;;7.43;1.25;;;;;;;11.72;79.14;101091.91;5004434;28;20117;-78
2022/09/16 10:18:31;;;;;;;1.75;0.45;;;;;;;11.67;79.29;101092.25;4988096;28;20121;-78
2022/09/16 10:21:13;;;;;;;2.97;0.40;;;;;;;11.77;80.68;101089.72;4989805;28;20478;-78
2022/09/16 10:23:39;;;;;;;0.32;0.30;;;;;;;11.91;82.03;101088.72;5007984;28;20041;-78
2022/09/16 10:26:04;;;;;;;2.95;0.55;;;;;;;12.02;82.55;101090.66;4996471;28;20037;-77
2022/09/16 10:28:29;;;;;;;0.30;0.30;;;;;;;12.05;80.57;101088.56;5004126;28;20537;-78
2022/09/16 10:30:57;;;;;;;2.10;0.40;;;;;;;12.09;81.76;101089.22;4989359;28;20417;-78
2022/09/16 10:33:42;;;;;;;1.90;0.50;;;;;;;12.35;83.02;101079.91;4989261;28;20054;-79
2022/09/16 10:36:10;;;;;;;1.13;0.65;;;;;;;12.72;83.06;101079.81;5004617;28;20468;-78
2022/09/16 10:38:39;;;;;;;1.23;0.60;;;;;;;13.01;81.52;101083.03;4990754;28;20041;-79
2022/09/16 10:41:14;;;;;;;0.40;0.40;;;;;;;13.28;79.19;101088.16;4993268;28;20566;-78
2022/09/16 10:43:47;;;;;;;0.90;0.57;;;;;;;13.62;80.13;101080.00;4995788;28;20041;-77
2022/09/16 10:46:15;;;;;;;2.55;0.50;;;;;;;14.08;83.87;101081.66;4993679;28;20070;-76
2022/09/16 10:48:41;;;;;;;3.70;0.70;;;;;;;14.44;83.62;101081.28;4993164;28;20128;-77
2022/09/16 10:51:21;;;;;;;11.25;1.95;;;;;;;14.77;81.98;101079.44;5008356;28;20045;-76
2022/09/16 10:53:52;;;;;;;1.17;0.60;;;;;;;15.09;82.09;101078.50;4992007;28;20489;-77
2022/09/16 10:56:24;;;;;;;0.73;0.50;;;;;;;15.25;79.36;101074.28;4993244;28;20042;-76
2022/09/16 10:59:10;;;;;;;1.77;1.10;;;;;;;15.24;79.32;101066.19;4993031;28;20037;-77
2022/09/16 11:02:13;;;;;;;6.78;1.20;;;;;;;15.23;79.33;101059.84;4991981;28;20096;-76
2022/09/16 11:05:02;;;;;;;1.33;0.60;;;;;;;15.12;79.14;101072.75;4992940;28;20055;-77
2022/09/16 11:08:00;;;;;;;2.53;0.82;;;;;;;15.02;79.06;101072.72;5008114;28;20042;-75
2022/09/16 11:10:42;;;;;;;2.58;0.68;;;;;;;14.88;79.43;101081.25;5006794;28;20489;-77
2022/09/16 11:13:26;;;;;;;2.58;1.23;;;;;;;14.76;79.88;101083.19;4992870;28;20088;-76
2022/09/16 11:16:16;;;;;;;2.75;0.82;;;;;;;14.59;80.69;101083.75;5007933;28;20125;-76
2022/09/16 11:18:53;;;;;;;8.13;1.20;;;;;;;14.50;79.98;101085.41;4992592;28;20041;-76
2022/09/16 11:21:35;;;;;;;1.67;0.60;;;;;;;14.51;81.26;101092.63;4992918;28;20498;-76
2022/09/16 11:24:33;;;;;;;5.47;0.80;;;;;;;14.49;79.13;101084.53;4992407;28;20426;-76
2022/09/16 11:27:12;;;;;;;8.05;1.20;;;;;;;14.87;81.63;101082.25;4991345;28;20796;-76
2022/09/16 11:29:48;;;;;;;2.88;1.02;;;;;;;15.25;80.53;101077.03;4992288;28;20050;-76
2022/09/16 11:32:20;;;;;;;4.82;0.98;;;;;;;15.64;80.88;101070.88;4993126;28;20042;-76
2022/09/16 11:35:21;;;;;;;2.60;1.10;;;;;;;16.09;79.23;101079.56;4992966;28;20061;-77
2022/09/16 11:38:37;;;;;;;7.15;1.48;;;;;;;16.64;78.89;101082.63;4992775;28;20030;-77
2022/09/16 11:41:28;;;;;;;3.25;1.00;;;;;;;17.14;78.66;101085.22;4954570;28;20054;-77
2022/09/16 11:44:01;;;;;;;5.45;1.55;;;;;;;17.46;76.75;101078.47;4970961;28;20039;-77
2022/09/16 11:46:37;;;;;;;5.18;1.30;;;;;;;17.46;73.46;101086.72;4987636;28;20042;-77
2022/09/16 11:49:24;;;;;;;2.58;0.98;;;;;;;17.65;71.29;101099.56;4991546;28;20061;-76